| Date | Time | Temp. (oF) | Dew Point (oF) | Rel. Hum. (%) | Press. (in.) | Wind Dir. | Wind Speed (mph) | Hourly Rainfall (in.) |
|
|---|---|---|---|---|---|---|---|---|---|
| 1 | 03/28 | 00:00 | 51 | 45 | 82 | 29.98 | SE | 0 | 0.00 |
| 2 | 03/27 | 23:00 | 52 | 43 | 73 | 29.98 | ESE | 3 | 0.00 |
| 3 | 03/27 | 22:00 | 52 | 43 | 72 | 29.98 | SE | 2 | 0.00 |
| 4 | 03/27 | 21:00 | 53 | 43 | 70 | 29.97 | E | 3 | 0.00 |
| 5 | 03/27 | 20:00 | 54 | 42 | 64 | 29.96 | SE | 0 | 0.00 |
| 6 | 03/27 | 19:00 | 56 | 41 | 58 | 29.95 | ESE | 0 | 0.00 |
| 7 | 03/27 | 18:00 | 58 | 42 | 57 | 29.96 | SE | 0 | 0.00 |
| 8 | 03/27 | 17:00 | 59 | 41 | 53 | 29.97 | NNW | 0 | 0.00 |
| 9 | 03/27 | 16:00 | 58 | 42 | 56 | 29.98 | SSW | 0 | 0.00 |
| 10 | 03/27 | 15:00 | 58 | 44 | 61 | 29.99 | SSW | 0 | 0.00 |
| 11 | 03/27 | 14:00 | 57 | 44 | 62 | 30.01 | NNW | 0 | 0.00 |
| 12 | 03/27 | 13:00 | 56 | 44 | 66 | 30.01 | NNE | 0 | 0.00 |
| 13 | 03/27 | 12:00 | 53 | 43 | 71 | 30.03 | E | 7 | 0.00 |
| 14 | 03/27 | 11:00 | 52 | 45 | 78 | 30.03 | NE | 0 | 0.00 |
| 15 | 03/27 | 10:00 | 50 | 46 | 87 | 30.04 | NNW | 8 | 0.00 |
| 16 | 03/27 | 09:00 | 45 | 45 | 100 | 30.03 | WNW | 0 | 0.00 |
| 17 | 03/27 | 08:00 | 40 | 40 | 100 | 30.02 | SSW | 0 | 0.00 |
| 18 | 03/27 | 07:00 | 40 | 40 | 100 | 29.99 | NNW | 1 | 0.00 |
| 19 | 03/27 | 06:00 | 41 | 41 | 100 | 29.97 | NW | 2 | 0.00 |
| 20 | 03/27 | 05:00 | 41 | 41 | 100 | 29.96 | NW | 2 | 0.00 |
| 21 | 03/27 | 04:00 | 42 | 41 | 100 | 29.92 | NW | 4 | 0.00 |
| 22 | 03/27 | 03:00 | 43 | 42 | 100 | 29.92 | WSW | 2 | 0.00 |
| 23 | 03/27 | 02:00 | 44 | 44 | 100 | 29.92 | NW | 9 | 0.00 |
| 24 | 03/27 | 01:00 | 44 | 44 | 100 | 29.92 | NNW | 3 | 0.00 |